createdAt,value
2023-05-20T00:00:45.989Z,100.00
2023-05-20T00:03:12.738Z,100.00
2023-05-20T00:05:39.890Z,100.00
2023-05-20T00:08:09.681Z,100.00
2023-05-20T00:10:36.522Z,100.00
2023-05-20T00:13:03.429Z,100.00
2023-05-20T00:15:32.086Z,100.00
2023-05-20T00:18:03.238Z,100.00
2023-05-20T00:20:32.221Z,100.00
2023-05-20T00:23:00.349Z,100.00
2023-05-20T00:25:27.406Z,100.00
2023-05-20T00:27:54.040Z,100.00
2023-05-20T00:30:21.840Z,100.00
2023-05-20T00:32:48.654Z,100.00
2023-05-20T00:35:16.565Z,100.00
2023-05-20T00:37:43.676Z,100.00
2023-05-20T00:40:11.713Z,100.00
2023-05-20T00:42:39.196Z,100.00
2023-05-20T00:45:06.528Z,100.00
2023-05-20T00:47:36.682Z,100.00
2023-05-20T00:50:05.560Z,100.00
2023-05-20T00:52:33.241Z,100.00
2023-05-20T00:55:01.514Z,100.00
2023-05-20T00:57:30.240Z,100.00
2023-05-20T00:59:57.133Z,100.00
2023-05-20T01:02:24.117Z,100.00
2023-05-20T01:04:51.066Z,100.00
2023-05-20T01:07:19.327Z,100.00
2023-05-20T01:09:46.282Z,100.00
2023-05-20T01:12:25.257Z,100.00
2023-05-20T01:15:00.481Z,100.00
2023-05-20T01:17:31.279Z,100.00
2023-05-20T01:19:59.958Z,100.00
2023-05-20T01:22:31.330Z,100.00
2023-05-20T01:24:57.972Z,100.00
2023-05-20T01:27:25.970Z,100.00
2023-05-20T01:29:53.206Z,100.00
2023-05-20T01:32:27.932Z,100.00
2023-05-20T01:34:56.029Z,100.00
2023-05-20T01:37:25.413Z,100.00
2023-05-20T01:39:53.828Z,100.00
2023-05-20T01:42:22.575Z,100.00
2023-05-20T01:44:49.458Z,100.00
2023-05-20T01:47:16.149Z,100.00
2023-05-20T01:49:42.854Z,100.00
2023-05-20T01:52:09.536Z,100.00
2023-05-20T01:54:37.668Z,100.00
2023-05-20T01:57:04.970Z,100.00
2023-05-20T01:59:32.885Z,100.00
2023-05-20T02:01:59.630Z,100.00
2023-05-20T02:04:26.361Z,100.00
2023-05-20T02:06:53.066Z,100.00
2023-05-20T02:09:19.795Z,100.00
2023-05-20T02:11:46.468Z,100.00
2023-05-20T02:14:13.217Z,100.00
2023-05-20T02:16:39.924Z,100.00
2023-05-20T02:19:12.819Z,100.00
2023-05-20T02:21:42.609Z,100.00
2023-05-20T02:24:10.649Z,100.00
2023-05-20T02:26:37.274Z,100.00
2023-05-20T02:29:05.188Z,100.00
2023-05-20T02:31:33.004Z,100.00
2023-05-20T02:33:59.747Z,100.00
2023-05-20T02:36:29.196Z,100.00
2023-05-20T02:38:58.177Z,100.00
2023-05-20T02:41:24.863Z,100.00
2023-05-20T02:43:51.526Z,100.00
2023-05-20T02:46:19.753Z,100.00
2023-05-20T02:48:46.448Z,100.00
2023-05-20T02:51:14.497Z,100.00
2023-05-20T02:53:42.333Z,100.00
2023-05-20T02:56:11.402Z,100.00
2023-05-20T02:58:38.780Z,100.00
2023-05-20T03:01:05.668Z,100.00
2023-05-20T03:03:32.549Z,100.00
2023-05-20T03:05:59.361Z,100.00
2023-05-20T03:08:26.049Z,100.00
2023-05-20T03:10:52.679Z,100.00
2023-05-20T03:13:20.466Z,100.00
2023-05-20T03:15:47.247Z,100.00
2023-05-20T03:18:14.059Z,100.00
2023-05-20T03:20:41.671Z,100.00
2023-05-20T03:23:09.708Z,100.00
2023-05-20T03:25:37.563Z,100.00
2023-05-20T03:28:05.640Z,100.00
2023-05-20T03:30:34.388Z,100.00
2023-05-20T03:33:03.045Z,100.00
2023-05-20T03:35:31.273Z,100.00
2023-05-20T03:37:59.624Z,100.00
2023-05-20T03:40:27.532Z,100.00
2023-05-20T03:42:54.256Z,100.00
2023-05-20T03:45:21.133Z,100.00
2023-05-20T03:47:47.819Z,100.00
2023-05-20T03:50:14.609Z,100.00
2023-05-20T03:52:41.281Z,100.00
2023-05-20T03:55:08.337Z,100.00
2023-05-20T03:57:36.720Z,100.00
2023-05-20T04:00:10.201Z,100.00
2023-05-20T04:02:38.915Z,100.00
2023-05-20T04:05:09.973Z,100.00
2023-05-20T04:07:38.033Z,100.00
2023-05-20T04:10:05.527Z,100.00
2023-05-20T04:12:32.768Z,100.00
2023-05-20T04:15:01.397Z,100.00
2023-05-20T04:17:31.636Z,100.00
2023-05-20T04:20:00.145Z,100.00
2023-05-20T04:22:27.570Z,100.00
2023-05-20T04:24:55.614Z,100.00
2023-05-20T04:27:22.265Z,100.00
2023-05-20T04:29:50.253Z,100.00
2023-05-20T04:32:19.164Z,100.00
2023-05-20T04:34:48.134Z,100.00
2023-05-20T04:37:14.804Z,100.00
2023-05-20T04:39:44.920Z,100.00
2023-05-20T04:42:11.678Z,100.00
2023-05-20T04:44:38.694Z,100.00
2023-05-20T04:47:08.049Z,100.00
2023-05-20T04:49:34.744Z,100.00
2023-05-20T04:52:01.392Z,100.00
2023-05-20T04:54:29.152Z,100.00
2023-05-20T04:56:58.200Z,100.00
2023-05-20T04:59:25.029Z,100.00
2023-05-20T05:01:51.828Z,100.00
2023-05-20T05:04:18.747Z,100.00
2023-05-20T05:06:45.463Z,100.00
2023-05-20T05:09:14.990Z,100.00
2023-05-20T05:11:41.708Z,100.00
2023-05-20T05:14:08.400Z,100.00
2023-05-20T05:16:35.156Z,100.00
2023-05-20T05:19:02.078Z,100.00
2023-05-20T05:21:30.289Z,100.00
2023-05-20T05:23:59.252Z,100.00
2023-05-20T05:26:27.915Z,100.00
2023-05-20T05:28:55.313Z,100.00
2023-05-20T05:31:22.188Z,100.00
2023-05-20T05:33:49.008Z,100.00
2023-05-20T05:36:16.838Z,100.00
2023-05-20T05:38:45.638Z,100.00
2023-05-20T05:41:12.330Z,100.00
2023-05-20T05:43:39.022Z,100.00
2023-05-20T05:46:06.029Z,100.00
2023-05-20T05:48:32.888Z,100.00
2023-05-20T05:50:59.536Z,100.00
2023-05-20T05:53:26.312Z,100.00
2023-05-20T05:55:54.480Z,100.00
2023-05-20T05:58:21.332Z,100.00
2023-05-20T06:00:51.617Z,100.00
2023-05-20T06:03:18.786Z,100.00
2023-05-20T06:05:47.402Z,100.00
2023-05-20T06:08:14.267Z,100.00
2023-05-20T06:10:41.023Z,100.00
2023-05-20T06:13:07.786Z,100.00
2023-05-20T06:15:34.765Z,100.00
2023-05-20T06:18:01.709Z,100.00
2023-05-20T06:20:28.456Z,100.00
2023-05-20T06:22:56.401Z,100.00
2023-05-20T06:25:24.256Z,100.00
2023-05-20T06:27:51.237Z,100.00
2023-05-20T06:30:19.401Z,100.00
2023-05-20T06:32:46.739Z,100.00
2023-05-20T06:35:13.511Z,100.00
2023-05-20T06:37:40.366Z,100.00
2023-05-20T06:40:07.652Z,100.00
2023-05-20T06:42:34.311Z,100.00
2023-05-20T06:45:00.974Z,100.00
2023-05-20T06:47:27.704Z,100.00
2023-05-20T06:49:54.370Z,100.00
2023-05-20T06:52:21.017Z,100.00
2023-05-20T06:54:48.918Z,100.00
2023-05-20T06:57:16.215Z,100.00
2023-05-20T06:59:42.890Z,100.00
2023-05-20T07:02:11.274Z,100.00
2023-05-20T07:04:38.050Z,100.00
2023-05-20T07:07:04.788Z,100.00
2023-05-20T07:09:32.591Z,100.00
2023-05-20T07:11:59.329Z,100.00
2023-05-20T07:14:27.188Z,100.00
2023-05-20T07:16:55.145Z,100.00
2023-05-20T07:19:21.831Z,100.00
2023-05-20T07:21:50.114Z,100.00
2023-05-20T07:24:17.648Z,100.00
2023-05-20T07:26:44.593Z,100.00
2023-05-20T07:29:11.388Z,100.00
2023-05-20T07:31:39.655Z,100.00
2023-05-20T07:34:06.692Z,100.00
2023-05-20T07:36:33.436Z,100.00
2023-05-20T07:39:04.244Z,100.00
2023-05-20T07:41:31.972Z,100.00
2023-05-20T07:43:58.657Z,100.00
2023-05-20T07:46:25.534Z,100.00
2023-05-20T07:48:52.306Z,100.00
2023-05-20T07:51:19.120Z,100.00
2023-05-20T07:53:45.825Z,100.00
2023-05-20T07:56:13.714Z,100.00
2023-05-20T07:58:43.842Z,100.00
2023-05-20T08:01:10.550Z,100.00
2023-05-20T08:03:37.401Z,100.00
2023-05-20T08:06:04.354Z,100.00
2023-05-20T08:08:31.012Z,100.00
2023-05-20T08:10:59.100Z,100.00
2023-05-20T08:13:25.737Z,100.00
2023-05-20T08:15:54.927Z,100.00
2023-05-20T08:18:22.246Z,100.00
2023-05-20T08:20:48.983Z,100.00
2023-05-20T08:23:15.737Z,100.00
2023-05-20T08:25:42.433Z,100.00
2023-05-20T08:28:10.703Z,100.00
2023-05-20T08:30:37.362Z,100.00
2023-05-20T08:33:05.987Z,100.00
2023-05-20T08:35:32.885Z,100.00
2023-05-20T08:38:00.877Z,100.00
2023-05-20T08:40:27.812Z,100.00
2023-05-20T08:42:55.139Z,100.00
2023-05-20T08:45:26.548Z,100.00
2023-05-20T08:47:53.810Z,100.00
2023-05-20T08:50:22.225Z,100.00
2023-05-20T08:52:50.630Z,100.00
2023-05-20T08:55:54.102Z,100.00
2023-05-20T08:58:22.212Z,100.00
2023-05-20T09:00:49.727Z,100.00
2023-05-20T09:03:16.437Z,100.00
2023-05-20T09:05:43.239Z,100.00
2023-05-20T09:08:11.885Z,100.00
2023-05-20T09:10:41.889Z,100.00
2023-05-20T09:13:11.220Z,100.00
2023-05-20T09:15:39.086Z,100.00
2023-05-20T09:18:09.260Z,100.00
2023-05-20T09:20:37.727Z,100.00
2023-05-20T09:23:06.612Z,100.00
2023-05-20T09:25:35.335Z,100.00
2023-05-20T09:28:05.862Z,100.00
2023-05-20T09:30:33.212Z,100.00
2023-05-20T09:33:01.746Z,100.00
2023-05-20T09:35:28.659Z,100.00
2023-05-20T09:37:58.075Z,100.00
2023-05-20T09:40:29.033Z,100.00
2023-05-20T09:43:12.441Z,100.00
2023-05-20T09:45:39.773Z,100.00
2023-05-20T09:48:10.890Z,100.00
2023-05-20T09:50:38.489Z,100.00
2023-05-20T09:53:06.603Z,100.00
2023-05-20T09:55:35.497Z,100.00
2023-05-20T09:58:03.575Z,100.00
2023-05-20T10:00:30.816Z,100.00
2023-05-20T10:02:58.465Z,100.00
2023-05-20T10:05:33.495Z,100.00
2023-05-20T10:08:25.993Z,100.00
2023-05-20T10:10:56.991Z,100.00
2023-05-20T10:13:55.569Z,100.00
2023-05-20T10:16:40.750Z,100.00
2023-05-20T10:19:27.384Z,100.00
2023-05-20T10:22:09.390Z,100.00
2023-05-20T10:24:38.352Z,100.00
2023-05-20T10:27:09.244Z,100.00
2023-05-20T10:29:45.124Z,100.00
2023-05-20T10:32:11.973Z,100.00
2023-05-20T10:34:49.438Z,100.00
2023-05-20T10:37:28.079Z,98.38
2023-05-20T10:40:10.505Z,99.87
2023-05-20T10:42:37.661Z,100.00
2023-05-20T10:45:05.338Z,100.00
2023-05-20T10:47:32.461Z,100.00
2023-05-20T10:49:59.379Z,100.00
2023-05-20T10:52:26.201Z,100.00
2023-05-20T10:54:57.667Z,100.00
2023-05-20T10:57:27.729Z,100.00
2023-05-20T10:59:55.224Z,100.00
2023-05-20T11:02:27.304Z,100.00
2023-05-20T11:04:59.485Z,100.00
2023-05-20T11:07:32.071Z,100.00
2023-05-20T11:10:00.629Z,100.00
2023-05-20T11:12:28.194Z,99.27
2023-05-20T11:14:55.355Z,99.86
2023-05-20T11:17:23.196Z,99.68
2023-05-20T11:19:50.979Z,98.03
2023-05-20T11:22:17.754Z,99.38
2023-05-20T11:24:44.446Z,98.07
2023-05-20T11:27:11.142Z,98.77
2023-05-20T11:29:38.877Z,98.68
2023-05-20T11:32:07.409Z,96.38
2023-05-20T11:34:38.359Z,93.78
2023-05-20T11:37:09.643Z,95.32
2023-05-20T11:39:37.658Z,92.63
2023-05-20T11:42:06.252Z,90.83
2023-05-20T11:44:33.268Z,90.40
2023-05-20T11:47:05.049Z,91.48
2023-05-20T11:49:40.062Z,90.46
2023-05-20T11:52:09.226Z,91.42
2023-05-20T11:54:36.526Z,91.87
2023-05-20T11:57:05.691Z,93.06
2023-05-20T11:59:33.723Z,92.44
2023-05-20T12:02:00.361Z,91.93
2023-05-20T12:04:27.361Z,90.83
2023-05-20T12:06:54.019Z,91.46
2023-05-20T12:09:20.684Z,91.51
2023-05-20T12:11:47.368Z,90.77
2023-05-20T12:14:14.094Z,92.23
2023-05-20T12:16:40.900Z,91.01
2023-05-20T12:19:08.816Z,92.71
2023-05-20T12:21:35.687Z,92.38
2023-05-20T12:24:05.298Z,92.61
2023-05-20T12:26:33.642Z,90.86
2023-05-20T12:29:00.355Z,90.54
2023-05-20T12:31:28.144Z,90.68
2023-05-20T12:33:54.845Z,91.61
2023-05-20T12:36:21.534Z,89.76
2023-05-20T12:38:48.202Z,88.62
2023-05-20T12:41:14.996Z,88.21
2023-05-20T12:43:41.666Z,88.39
2023-05-20T12:46:08.733Z,84.05
2023-05-20T12:48:35.655Z,83.38
2023-05-20T12:51:02.416Z,83.52
2023-05-20T12:53:29.058Z,84.29
2023-05-20T12:55:55.845Z,84.57
2023-05-20T12:58:26.250Z,82.99
2023-05-20T13:00:54.333Z,83.08
2023-05-20T13:03:21.223Z,82.97
2023-05-20T13:05:47.987Z,82.28
2023-05-20T13:08:14.969Z,82.56
2023-05-20T13:10:41.851Z,83.24
2023-05-20T13:13:08.513Z,81.88
2023-05-20T13:15:37.062Z,80.26
2023-05-20T13:18:07.448Z,81.46
2023-05-20T13:20:34.873Z,80.88
2023-05-20T13:23:01.911Z,79.34
2023-05-20T13:25:29.158Z,79.63
2023-05-20T13:27:56.063Z,78.11
2023-05-20T13:30:22.723Z,77.27
2023-05-20T13:32:50.949Z,75.35
2023-05-20T13:35:19.402Z,76.83
2023-05-20T13:37:47.378Z,77.08
2023-05-20T13:40:15.410Z,77.32
2023-05-20T13:42:42.056Z,76.46
2023-05-20T13:45:10.369Z,75.91
2023-05-20T13:47:37.123Z,76.91
2023-05-20T13:50:04.187Z,76.60
2023-05-20T13:52:30.898Z,77.13
2023-05-20T13:54:57.543Z,75.74
2023-05-20T13:57:24.274Z,76.70
2023-05-20T13:59:50.945Z,76.33
2023-05-20T14:02:18.075Z,75.54
2023-05-20T14:04:46.986Z,74.75
2023-05-20T14:07:14.301Z,73.04
2023-05-20T14:09:41.326Z,74.70
2023-05-20T14:12:08.105Z,74.21
2023-05-20T14:14:36.037Z,72.59
2023-05-20T14:17:02.750Z,72.33
2023-05-20T14:19:30.113Z,71.89
2023-05-20T14:21:58.907Z,71.11
2023-05-20T14:24:25.605Z,68.97
2023-05-20T14:26:52.271Z,67.44
2023-05-20T14:29:19.524Z,67.91
2023-05-20T14:31:47.636Z,69.71
2023-05-20T14:34:15.756Z,68.74
2023-05-20T14:36:42.690Z,68.87
2023-05-20T14:39:09.814Z,66.95
2023-05-20T14:41:36.670Z,66.81
2023-05-20T14:44:03.381Z,69.10
2023-05-20T14:46:30.614Z,66.85
2023-05-20T14:48:57.289Z,66.58
2023-05-20T14:51:23.944Z,67.08
2023-05-20T14:53:50.722Z,66.82
2023-05-20T14:56:18.355Z,67.76
2023-05-20T14:58:45.660Z,67.16
2023-05-20T15:01:12.491Z,65.37
2023-05-20T15:03:39.336Z,65.10
2023-05-20T15:06:06.224Z,64.70
2023-05-20T15:08:34.220Z,65.07
2023-05-20T15:11:01.260Z,64.36
2023-05-20T15:13:29.162Z,65.87
2023-05-20T15:15:57.136Z,66.01
2023-05-20T15:18:23.873Z,65.95
2023-05-20T15:20:51.808Z,65.27
2023-05-20T15:23:18.714Z,64.11
2023-05-20T15:25:45.421Z,64.01
2023-05-20T15:28:12.073Z,62.24
2023-05-20T15:30:38.768Z,64.25
2023-05-20T15:33:06.856Z,64.87
2023-05-20T15:35:33.583Z,65.51
2023-05-20T15:38:01.412Z,65.55
2023-05-20T15:40:28.268Z,65.04
2023-05-20T15:42:55.038Z,64.30
2023-05-20T15:45:21.788Z,64.71
2023-05-20T15:47:48.619Z,65.15
2023-05-20T15:50:15.375Z,65.63
2023-05-20T15:52:42.114Z,64.88
2023-05-20T15:55:11.169Z,63.95
2023-05-20T15:57:39.602Z,64.48
2023-05-20T16:00:11.712Z,63.85
2023-05-20T16:02:40.396Z,64.30
2023-05-20T16:05:07.506Z,63.45
2023-05-20T16:07:34.177Z,64.23
2023-05-20T16:10:00.863Z,65.09
2023-05-20T16:12:28.721Z,64.33
2023-05-20T16:14:55.702Z,64.09
2023-05-20T16:17:22.469Z,64.56
2023-05-20T16:19:49.604Z,64.73
2023-05-20T16:22:17.956Z,63.00
2023-05-20T16:24:45.997Z,63.63
2023-05-20T16:27:12.675Z,63.79
2023-05-20T16:29:39.976Z,63.58
2023-05-20T16:32:07.218Z,62.74
2023-05-20T16:34:34.083Z,63.08
2023-05-20T16:37:00.905Z,63.73
2023-05-20T16:39:27.685Z,63.22
2023-05-20T16:41:54.404Z,62.38
2023-05-20T16:44:21.120Z,62.05
2023-05-20T16:46:47.753Z,60.51
2023-05-20T16:49:15.932Z,58.90
2023-05-20T16:51:42.575Z,59.55
2023-05-20T16:54:09.332Z,59.37
2023-05-20T16:56:37.219Z,59.76
2023-05-20T16:59:03.955Z,59.95
2023-05-20T17:01:30.752Z,61.01
2023-05-20T17:03:57.507Z,62.28
2023-05-20T17:06:24.696Z,62.81
2023-05-20T17:08:51.461Z,64.42
2023-05-20T17:11:18.146Z,64.51
2023-05-20T17:13:44.791Z,65.75
2023-05-20T17:16:12.199Z,66.98
2023-05-20T17:18:38.999Z,67.73
2023-05-20T17:21:06.014Z,67.00
2023-05-20T17:23:32.684Z,65.73
2023-05-20T17:25:59.392Z,66.32
2023-05-20T17:28:27.493Z,66.41
2023-05-20T17:30:54.154Z,67.00
2023-05-20T17:33:22.458Z,67.67
2023-05-20T17:35:49.174Z,68.41
2023-05-20T17:38:16.113Z,69.13
2023-05-20T17:40:42.795Z,70.20
2023-05-20T17:43:09.480Z,70.48
2023-05-20T17:45:36.253Z,71.09
2023-05-20T17:48:08.769Z,70.89
2023-05-20T17:50:38.737Z,71.77
2023-05-20T17:53:05.467Z,71.97
2023-05-20T17:55:32.945Z,70.83
2023-05-20T17:58:01.854Z,73.02
2023-05-20T18:00:28.860Z,75.07
2023-05-20T18:02:58.297Z,77.13
2023-05-20T18:05:25.074Z,79.19
2023-05-20T18:07:53.363Z,80.98
2023-05-20T18:10:21.366Z,82.39
2023-05-20T18:12:48.090Z,84.02
2023-05-20T18:15:16.956Z,85.34
2023-05-20T18:17:44.956Z,86.19
2023-05-20T18:20:13.280Z,87.10
2023-05-20T18:22:45.199Z,88.79
2023-05-20T18:25:15.486Z,89.04
2023-05-20T18:27:42.860Z,88.90
2023-05-20T18:30:10.441Z,89.76
2023-05-20T18:32:38.504Z,90.59
2023-05-20T18:35:05.574Z,91.19
2023-05-20T18:37:33.077Z,91.67
2023-05-20T18:40:01.098Z,92.15
2023-05-20T18:42:29.092Z,93.07
2023-05-20T18:44:55.793Z,94.97
2023-05-20T18:47:22.681Z,95.58
2023-05-20T18:49:49.376Z,95.75
2023-05-20T18:52:16.345Z,96.13
2023-05-20T18:54:43.014Z,97.45
2023-05-20T18:57:10.397Z,97.67
2023-05-20T18:59:38.292Z,97.98
2023-05-20T19:02:05.264Z,98.10
2023-05-20T19:04:31.961Z,98.03
2023-05-20T19:06:59.239Z,98.94
2023-05-20T19:09:26.075Z,100.00
2023-05-20T19:11:56.705Z,100.00
2023-05-20T19:14:24.473Z,100.00
2023-05-20T19:16:52.803Z,100.00
2023-05-20T19:19:20.864Z,100.00
2023-05-20T19:21:48.890Z,100.00
2023-05-20T19:24:17.841Z,100.00
2023-05-20T19:26:44.593Z,100.00
2023-05-20T19:29:11.896Z,100.00
2023-05-20T19:31:41.494Z,100.00
2023-05-20T19:34:08.167Z,100.00
2023-05-20T19:36:36.182Z,100.00
2023-05-20T19:39:02.831Z,100.00
2023-05-20T19:41:29.563Z,100.00
2023-05-20T19:43:56.245Z,100.00
2023-05-20T19:46:23.042Z,100.00
2023-05-20T19:48:49.751Z,100.00
2023-05-20T19:51:16.495Z,100.00
2023-05-20T19:53:43.151Z,100.00
2023-05-20T19:56:09.956Z,100.00
2023-05-20T19:58:37.217Z,100.00
2023-05-20T20:01:04.846Z,100.00
2023-05-20T20:03:31.646Z,100.00
2023-05-20T20:05:58.383Z,100.00
2023-05-20T20:08:25.106Z,100.00
2023-05-20T20:10:53.189Z,100.00
2023-05-20T20:13:19.823Z,100.00
2023-05-20T20:15:46.940Z,100.00
2023-05-20T20:18:13.642Z,100.00
2023-05-20T20:20:40.701Z,100.00
2023-05-20T20:23:09.470Z,100.00
2023-05-20T20:25:39.983Z,100.00
2023-05-20T20:28:08.124Z,100.00
2023-05-20T20:30:36.100Z,100.00
2023-05-20T20:33:06.469Z,100.00
2023-05-20T20:35:34.306Z,100.00
2023-05-20T20:38:01.512Z,100.00
2023-05-20T20:40:28.493Z,100.00
2023-05-20T20:42:58.429Z,100.00
2023-05-20T20:45:26.481Z,100.00
2023-05-20T20:47:54.757Z,100.00
2023-05-20T20:50:23.023Z,100.00
2023-05-20T20:52:49.679Z,100.00
2023-05-20T20:55:17.986Z,100.00
2023-05-20T20:57:46.563Z,100.00
2023-05-20T21:00:17.641Z,100.00
2023-05-20T21:02:44.469Z,100.00
2023-05-20T21:05:11.216Z,100.00
2023-05-20T21:07:39.201Z,100.00
2023-05-20T21:10:09.643Z,100.00
2023-05-20T21:12:37.505Z,100.00
2023-05-20T21:15:05.772Z,100.00
2023-05-20T21:17:33.812Z,100.00
2023-05-20T21:20:00.472Z,100.00
2023-05-20T21:22:28.338Z,100.00
2023-05-20T21:24:56.324Z,100.00
2023-05-20T21:27:22.965Z,100.00
2023-05-20T21:29:51.974Z,100.00
2023-05-20T21:32:18.800Z,100.00
2023-05-20T21:34:45.850Z,100.00
2023-05-20T21:37:13.783Z,100.00
2023-05-20T21:39:41.653Z,100.00
2023-05-20T21:42:09.936Z,100.00
2023-05-20T21:44:36.594Z,100.00
2023-05-20T21:47:04.472Z,100.00
2023-05-20T21:49:31.169Z,100.00
2023-05-20T21:51:57.805Z,100.00
2023-05-20T21:54:25.868Z,100.00
2023-05-20T21:56:53.077Z,100.00
2023-05-20T21:59:19.766Z,100.00
2023-05-20T22:01:46.525Z,100.00
2023-05-20T22:04:13.334Z,100.00
2023-05-20T22:06:41.393Z,100.00
2023-05-20T22:09:08.041Z,100.00
2023-05-20T22:11:34.672Z,100.00
2023-05-20T22:14:02.796Z,100.00
2023-05-20T22:16:30.190Z,100.00
2023-05-20T22:18:58.594Z,100.00
2023-05-20T22:21:25.746Z,100.00
2023-05-20T22:23:54.183Z,100.00
2023-05-20T22:26:20.955Z,100.00
2023-05-20T22:28:47.675Z,100.00
2023-05-20T22:31:14.347Z,100.00
2023-05-20T22:33:41.552Z,100.00
2023-05-20T22:36:10.703Z,100.00
2023-05-20T22:38:38.909Z,100.00
2023-05-20T22:41:05.690Z,100.00
2023-05-20T22:43:33.533Z,100.00
2023-05-20T22:46:00.273Z,100.00
2023-05-20T22:48:26.973Z,100.00
2023-05-20T22:50:54.211Z,100.00
2023-05-20T22:53:20.918Z,100.00
2023-05-20T22:55:47.982Z,100.00
2023-05-20T22:58:16.984Z,100.00
2023-05-20T23:00:44.587Z,100.00
2023-05-20T23:03:12.166Z,100.00
2023-05-20T23:05:38.981Z,100.00
2023-05-20T23:08:05.693Z,100.00
2023-05-20T23:10:32.413Z,100.00
2023-05-20T23:12:59.042Z,100.00
2023-05-20T23:15:25.822Z,100.00
2023-05-20T23:17:53.835Z,100.00
2023-05-20T23:20:22.293Z,100.00
2023-05-20T23:22:50.311Z,100.00
2023-05-20T23:25:18.359Z,100.00
2023-05-20T23:27:45.024Z,100.00
2023-05-20T23:30:13.175Z,100.00
2023-05-20T23:32:39.979Z,100.00
2023-05-20T23:35:07.365Z,100.00
2023-05-20T23:37:34.582Z,100.00
2023-05-20T23:40:01.330Z,100.00
2023-05-20T23:42:28.108Z,100.00
2023-05-20T23:44:54.762Z,100.00
2023-05-20T23:47:22.738Z,100.00
2023-05-20T23:49:49.607Z,100.00
2023-05-20T23:52:16.358Z,100.00
2023-05-20T23:54:43.054Z,100.00
2023-05-20T23:57:11.729Z,100.00
2023-05-20T23:59:38.885Z,100.00
